Desert Springs, Nevada Weather observations

Data are for 10 minute period ending at time listed.
 Day   Time    Ave.   Ave.  Ave.  Vector   Max.   Total    Solar   
  of    of     Air    Rel.  Wind   Wind    Wind  Precip.   Rad.    
Year   Day     Temp.  Hum.  Speed  Dir.    Gust                    
2015   (PST)    F      %     mph   deg.    mph     in.     W/m2    
------------------------------------------------------------------- 
 207   23:00   60.0    40   12.0   296     20.0    5.45       0  
 208    0:00   58.0    45   21.0   345     28.0    5.45       0  
 208    1:00   56.0    49   16.0   360     29.0    5.45       0  
 208    2:00   56.0    49   13.0   347     23.0    5.45       0  
 208    3:00   54.0    53    5.0   222     13.0    5.45       0  
 208    4:00   53.0    54    2.0    37      8.0    5.45       0  
 208    5:00   52.0    57    4.0   267      9.0    5.45       0  
 208    6:00   53.0    55    4.0   241      8.0    5.45      30  
 208    7:00   56.0    51    4.0   233      7.0    5.45     210  
 208    8:00   61.0    44    3.0    12      7.0    5.45     409  
 208    9:00   64.0    39    5.0    33     10.0    5.45     597  
 208   10:00   68.0    34    3.0   300     12.0    5.45     761  
 208   11:00   70.0    30    6.0    93     12.0    5.45     886  
 208   12:00   73.0    27    6.0    57     15.0    5.45     952  
 208   13:00   78.0    21    4.0   325     16.0    5.45     984  
 208   14:00   78.0    18   10.0    10     22.0    5.45     952  
 208   15:00   78.0    18    8.0    37     16.0    5.45     830  
 208   16:00   78.0    18   14.0    16     22.0    5.45     723  
 208   17:00   77.0    16   11.0    30     20.0    5.45     555  
 208   18:00   75.0    15   13.0    36     19.0    5.45     360  
 208   19:00   73.0    16   10.0    40     19.0    5.45     165  
 208   20:00   69.0    18    8.0    63     16.0    5.45      17  
 208   21:00   67.0    20    6.0    60     13.0    5.45       0  
 208   22:00   65.0    20    3.0    30      7.0    5.45       0  

Return to Desert Springs, Nevada graphs page.


Western Regional Climate Center,wrcc@dri.edu